Time;durP1;ratioP1;P1;durP2;ratioP2;P2;SDS_P1;SDS_P2;PMS_P1;PMS_P2;Temp;Humidity;BMP_temperature;BMP_pressure;BME280_temperature;BME280_humidity;BME280_pressure;Samples;Min_cycle;Max_cycle;Signal;HPM_P1;HPM_P2
2021/06/20 00:00:30;;;;;;;9.80;6.78;;;;;;;;;;5095281;28;20039;-68
2021/06/20 00:02:56;;;;;;;16.92;7.40;;;;;;;;;;5094812;28;20106;-68
2021/06/20 00:05:32;;;;;;;13.57;7.28;;;;;;;;;;5094753;28;20123;-68
2021/06/20 00:08:05;;;;;;;13.40;7.07;;;;;;;;;;5095221;28;20032;-68
2021/06/20 00:10:32;;;;;;;12.90;7.30;;;;;;;;;;5095362;28;20040;-68
2021/06/20 00:12:58;;;;;;;12.32;6.53;;;;;;;;;;5095386;28;20077;-68
2021/06/20 00:15:24;;;;;;;24.85;8.45;;;;;;;;;;5095005;28;20028;-68
2021/06/20 00:17:49;;;;;;;11.15;7.13;;;;;;;;;;5094794;28;20043;-68
2021/06/20 00:20:16;;;;;;;15.32;7.65;;;;;;;;;;5094894;28;20028;-68
2021/06/20 00:22:41;;;;;;;8.35;6.07;;;;;;;;;;5095181;28;20099;-67
2021/06/20 00:25:07;;;;;;;15.65;7.20;;;;;;;;;;5095156;28;20131;-68
2021/06/20 00:27:32;;;;;;;13.35;7.85;;;;;;;;;;5095014;28;20089;-68
2021/06/20 00:29:58;;;;;;;15.93;7.18;;;;;;;;;;5095198;28;20023;-68
2021/06/20 00:32:23;;;;;;;12.18;6.93;;;;;;;;;;5093874;28;20114;-69
2021/06/20 00:34:48;;;;;;;11.18;6.45;;;;;;;;;;5094731;28;20141;-68
2021/06/20 00:37:14;;;;;;;9.65;6.38;;;;;;;;;;5094323;28;20016;-68
2021/06/20 00:39:39;;;;;;;12.82;6.63;;;;;;;;;;5094733;28;20035;-68
2021/06/20 00:42:04;;;;;;;12.43;6.43;;;;;;;;;;5094718;28;20055;-68
2021/06/20 00:44:30;;;;;;;16.90;7.22;;;;;;;;;;5094615;28;20108;-68
2021/06/20 00:46:55;;;;;;;9.45;6.65;;;;;;;;;;5094639;28;20119;-68
2021/06/20 00:49:20;;;;;;;11.32;6.70;;;;;;;;;;5094660;28;20028;-68
2021/06/20 00:51:45;;;;;;;21.85;7.22;;;;;;;;;;5094535;28;20027;-68
2021/06/20 00:54:12;;;;;;;11.68;7.05;;;;;;;;;;5094695;28;20468;-68
2021/06/20 00:56:37;;;;;;;14.43;7.00;;;;;;;;;;5094492;28;20081;-69
2021/06/20 00:59:03;;;;;;;12.75;7.25;;;;;;;;;;5094798;28;20051;-68
2021/06/20 01:01:32;;;;;;;20.15;7.72;;;;;;;;;;5094184;28;20039;-68
2021/06/20 01:03:57;;;;;;;16.98;8.60;;;;;;;;;;5094508;28;20127;-68
2021/06/20 01:06:23;;;;;;;14.38;8.43;;;;;;;;;;5094166;28;20131;-68
2021/06/20 01:08:49;;;;;;;12.68;8.05;;;;;;;;;;5094378;28;20032;-68
2021/06/20 01:11:14;;;;;;;18.15;8.48;;;;;;;;;;5094186;28;20561;-69
2021/06/20 01:13:39;;;;;;;13.70;8.10;;;;;;;;;;5094308;28;20020;-68
2021/06/20 01:16:05;;;;;;;10.75;7.38;;;;;;;;;;5094298;28;20021;-68
2021/06/20 01:18:30;;;;;;;12.68;7.53;;;;;;;;;;5094206;28;20110;-68
2021/06/20 01:20:55;;;;;;;13.65;7.65;;;;;;;;;;5094008;28;20028;-68
2021/06/20 01:23:20;;;;;;;20.60;8.93;;;;;;;;;;5094045;28;20032;-68
2021/06/20 01:25:46;;;;;;;21.35;9.10;;;;;;;;;;5093853;28;20429;-68
2021/06/20 01:28:13;;;;;;;19.83;9.45;;;;;;;;;;5092750;28;20031;-68
2021/06/20 01:30:45;;;;;;;13.23;8.32;;;;;;;;;;5093838;28;20028;-67
2021/06/20 01:33:11;;;;;;;22.80;9.93;;;;;;;;;;5093974;28;20492;-68
2021/06/20 01:35:37;;;;;;;16.75;9.07;;;;;;;;;;5093398;28;20044;-68
2021/06/20 01:38:03;;;;;;;12.95;7.78;;;;;;;;;;5093752;28;20036;-68
2021/06/20 01:40:28;;;;;;;15.02;8.57;;;;;;;;;;5093726;28;20043;-68
2021/06/20 01:42:54;;;;;;;23.08;9.90;;;;;;;;;;5093758;28;20020;-68
2021/06/20 01:45:20;;;;;;;27.80;9.85;;;;;;;;;;5093701;28;20491;-68
2021/06/20 01:47:45;;;;;;;13.77;8.45;;;;;;;;;;5093777;28;20043;-68
2021/06/20 01:50:13;;;;;;;14.13;8.65;;;;;;;;;;5093576;28;20024;-68
2021/06/20 01:52:38;;;;;;;14.80;8.02;;;;;;;;;;5093028;28;20035;-69
2021/06/20 01:55:05;;;;;;;13.05;7.80;;;;;;;;;;5093515;28;20025;-68
2021/06/20 01:57:34;;;;;;;18.27;8.70;;;;;;;;;;5093430;28;20051;-68
2021/06/20 01:59:59;;;;;;;18.80;8.90;;;;;;;;;;5093112;28;20469;-69
2021/06/20 02:02:26;;;;;;;13.48;8.23;;;;;;;;;;5092883;28;20077;-68
2021/06/20 02:04:52;;;;;;;12.63;8.27;;;;;;;;;;5093229;28;20056;-68
2021/06/20 02:07:18;;;;;;;15.75;8.65;;;;;;;;;;5093209;28;20114;-68
2021/06/20 02:09:44;;;;;;;16.10;8.43;;;;;;;;;;5092980;28;20103;-67
2021/06/20 02:12:09;;;;;;;13.10;8.60;;;;;;;;;;5093223;28;20024;-69
2021/06/20 02:14:36;;;;;;;15.88;8.57;;;;;;;;;;5093276;28;20028;-68
2021/06/20 02:17:24;;;;;;;14.07;8.63;;;;;;;;;;5093138;28;20115;-68
2021/06/20 02:19:55;;;;;;;11.45;7.80;;;;;;;;;;5092733;28;20067;-68
2021/06/20 02:22:21;;;;;;;11.98;7.80;;;;;;;;;;5093175;28;20039;-68
2021/06/20 02:24:47;;;;;;;15.60;8.80;;;;;;;;;;5093106;28;20472;-68
2021/06/20 02:27:13;;;;;;;12.25;7.50;;;;;;;;;;5093071;28;20036;-69
2021/06/20 02:29:39;;;;;;;12.48;7.57;;;;;;;;;;5093143;28;20365;-68
2021/06/20 02:32:05;;;;;;;9.23;6.63;;;;;;;;;;5093075;28;20078;-68
2021/06/20 02:34:30;;;;;;;14.85;7.97;;;;;;;;;;5092827;28;20024;-68
2021/06/20 02:36:55;;;;;;;8.38;6.68;;;;;;;;;;5092961;28;20036;-68
2021/06/20 02:39:20;;;;;;;11.43;6.60;;;;;;;;;;5093188;28;20024;-68
2021/06/20 02:41:49;;;;;;;9.75;6.80;;;;;;;;;;5092890;28;20376;-67
2021/06/20 02:44:15;;;;;;;10.43;6.88;;;;;;;;;;5092994;28;20028;-69
2021/06/20 02:46:40;;;;;;;14.50;7.22;;;;;;;;;;5092592;28;20081;-69
2021/06/20 02:49:05;;;;;;;12.55;7.25;;;;;;;;;;5093043;28;20036;-68
2021/06/20 02:51:31;;;;;;;11.43;7.63;;;;;;;;;;5092900;28;20084;-69
2021/06/20 02:53:56;;;;;;;11.70;7.35;;;;;;;;;;5093277;28;20103;-68
2021/06/20 02:56:21;;;;;;;11.48;7.22;;;;;;;;;;5093120;28;20444;-69
2021/06/20 02:58:46;;;;;;;12.98;7.55;;;;;;;;;;5092937;28;20532;-68
2021/06/20 03:01:12;;;;;;;17.33;8.05;;;;;;;;;;5092793;28;20027;-68
2021/06/20 03:03:37;;;;;;;14.80;8.88;;;;;;;;;;5094446;28;20109;-67
2021/06/20 03:06:03;;;;;;;11.75;8.38;;;;;;;;;;5096582;28;20048;-68
2021/06/20 03:08:28;;;;;;;10.45;8.30;;;;;;;;;;5096943;28;20021;-68
2021/06/20 03:10:54;;;;;;;18.83;8.48;;;;;;;;;;5096538;28;20055;-68
2021/06/20 03:13:19;;;;;;;11.43;7.60;;;;;;;;;;5096556;28;20476;-68
2021/06/20 03:15:46;;;;;;;14.55;9.23;;;;;;;;;;5096515;28;20053;-68
2021/06/20 03:18:11;;;;;;;14.75;9.02;;;;;;;;;;5096463;28;20032;-69
2021/06/20 03:20:36;;;;;;;15.57;8.63;;;;;;;;;;5096381;28;20032;-68
2021/06/20 03:23:03;;;;;;;11.63;8.25;;;;;;;;;;5096410;28;20016;-68
2021/06/20 03:25:28;;;;;;;12.82;7.80;;;;;;;;;;5096299;28;20043;-68
2021/06/20 03:27:53;;;;;;;12.45;8.73;;;;;;;;;;5096141;28;20036;-68
2021/06/20 03:30:19;;;;;;;13.77;9.05;;;;;;;;;;5096373;28;20364;-68
2021/06/20 03:32:44;;;;;;;13.82;8.70;;;;;;;;;;5095840;28;20036;-68
2021/06/20 03:35:10;;;;;;;14.23;8.80;;;;;;;;;;5096091;28;20056;-67
2021/06/20 03:37:35;;;;;;;15.85;8.75;;;;;;;;;;5096037;28;20024;-68
2021/06/20 03:40:00;;;;;;;14.35;9.50;;;;;;;;;;5096096;28;20036;-68
2021/06/20 03:42:26;;;;;;;17.58;9.50;;;;;;;;;;5095833;28;20177;-68
2021/06/20 03:44:51;;;;;;;16.77;9.25;;;;;;;;;;5095912;28;20090;-68
2021/06/20 03:47:16;;;;;;;14.10;8.70;;;;;;;;;;5095868;28;20035;-68
2021/06/20 03:49:42;;;;;;;12.73;8.73;;;;;;;;;;5095889;28;20036;-67
2021/06/20 03:52:07;;;;;;;13.60;9.15;;;;;;;;;;5095752;28;20023;-68
2021/06/20 03:54:32;;;;;;;13.13;9.32;;;;;;;;;;5095785;28;20514;-68
2021/06/20 03:56:58;;;;;;;14.35;9.05;;;;;;;;;;5095653;28;20115;-68
2021/06/20 03:59:26;;;;;;;16.55;9.57;;;;;;;;;;5095657;28;20043;-68
2021/06/20 04:01:54;;;;;;;17.17;9.57;;;;;;;;;;5095524;28;20038;-67
2021/06/20 04:04:19;;;;;;;17.58;10.23;;;;;;;;;;5095553;28;20084;-68
2021/06/20 04:06:45;;;;;;;13.13;9.60;;;;;;;;;;5095463;28;20508;-68
2021/06/20 04:09:11;;;;;;;14.05;8.85;;;;;;;;;;5095478;28;20032;-68
2021/06/20 04:11:36;;;;;;;15.80;9.48;;;;;;;;;;5095427;28;20039;-68
2021/06/20 04:14:01;;;;;;;15.57;10.20;;;;;;;;;;5094987;28;20013;-68
2021/06/20 04:16:27;;;;;;;16.02;10.25;;;;;;;;;;5095317;28;20461;-68
2021/06/20 04:18:52;;;;;;;21.23;11.05;;;;;;;;;;5095203;28;20028;-68
2021/06/20 04:21:17;;;;;;;16.27;10.20;;;;;;;;;;5095251;28;20023;-68
2021/06/20 04:23:44;;;;;;;17.27;9.48;;;;;;;;;;5095168;28;20038;-67
2021/06/20 04:26:09;;;;;;;15.48;9.20;;;;;;;;;;5095345;28;20050;-68
2021/06/20 04:28:35;;;;;;;20.13;9.90;;;;;;;;;;5095129;28;20372;-68
2021/06/20 04:31:00;;;;;;;19.30;9.25;;;;;;;;;;5094914;28;20028;-68
2021/06/20 04:33:25;;;;;;;15.07;9.15;;;;;;;;;;5095017;28;20465;-68
2021/06/20 04:35:51;;;;;;;19.67;9.00;;;;;;;;;;5094776;28;20024;-68
2021/06/20 04:38:18;;;;;;;12.77;7.80;;;;;;;;;;5095255;28;20460;-68
2021/06/20 04:40:43;;;;;;;13.68;8.25;;;;;;;;;;5094913;28;20047;-67
2021/06/20 04:43:24;;;;;;;12.65;8.48;;;;;;;;;;5095058;28;20020;-68
2021/06/20 04:45:49;;;;;;;17.48;8.43;;;;;;;;;;5094656;28;20047;-67
2021/06/20 04:48:14;;;;;;;14.93;7.60;;;;;;;;;;5094420;28;20434;-68
2021/06/20 04:50:39;;;;;;;15.05;8.65;;;;;;;;;;5087295;28;20024;-69
2021/06/20 04:53:05;;;;;;;16.35;8.52;;;;;;;;;;5094558;28;20016;-67
2021/06/20 04:55:30;;;;;;;13.52;8.10;;;;;;;;;;5094350;28;20164;-68
2021/06/20 04:57:55;;;;;;;14.15;8.35;;;;;;;;;;5094452;28;20119;-68
2021/06/20 05:00:21;;;;;;;11.23;7.40;;;;;;;;;;5086020;28;20028;-68
2021/06/20 05:02:46;;;;;;;16.00;8.50;;;;;;;;;;5074474;28;20028;-68
2021/06/20 05:05:12;;;;;;;15.75;7.70;;;;;;;;;;5073635;28;20044;-68
2021/06/20 05:07:37;;;;;;;20.30;8.00;;;;;;;;;;5073989;28;20056;-68
2021/06/20 05:10:03;;;;;;;14.07;7.57;;;;;;;;;;5074086;28;20028;-68
2021/06/20 05:12:28;;;;;;;14.73;7.63;;;;;;;;;;5073925;28;20094;-68
2021/06/20 05:14:53;;;;;;;15.30;6.97;;;;;;;;;;5073908;28;20385;-67
2021/06/20 05:17:19;;;;;;;13.90;7.35;;;;;;;;;;5073850;28;20461;-68
2021/06/20 05:19:44;;;;;;;11.90;7.50;;;;;;;;;;5073865;28;20060;-68
2021/06/20 05:22:11;;;;;;;13.50;7.60;;;;;;;;;;5073732;28;20518;-68
2021/06/20 05:24:36;;;;;;;14.57;6.57;;;;;;;;;;5073691;28;20075;-68
2021/06/20 05:27:02;;;;;;;11.40;6.53;;;;;;;;;;5073211;28;20075;-68
2021/06/20 05:29:27;;;;;;;14.10;7.05;;;;;;;;;;5073750;28;20024;-67
2021/06/20 05:31:52;;;;;;;12.85;6.78;;;;;;;;;;5073513;28;20064;-67
2021/06/20 05:34:18;;;;;;;15.18;6.70;;;;;;;;;;5077352;28;20028;-68
2021/06/20 05:36:44;;;;;;;17.05;7.63;;;;;;;;;;5093250;28;20023;-68
2021/06/20 05:39:09;;;;;;;11.75;6.03;;;;;;;;;;5092564;28;20040;-67
2021/06/20 05:41:34;;;;;;;13.80;6.57;;;;;;;;;;5093688;28;20457;-68
2021/06/20 05:44:00;;;;;;;11.45;6.65;;;;;;;;;;5093694;28;20024;-68
2021/06/20 05:46:25;;;;;;;11.02;6.95;;;;;;;;;;5093531;28;20553;-68
2021/06/20 05:48:51;;;;;;;17.75;7.18;;;;;;;;;;5093339;28;20027;-68
2021/06/20 05:51:16;;;;;;;11.60;6.88;;;;;;;;;;5093551;28;20020;-68
2021/06/20 05:53:42;;;;;;;9.00;5.97;;;;;;;;;;5093554;28;20496;-68
2021/06/20 05:56:07;;;;;;;10.85;6.53;;;;;;;;;;5093185;28;20469;-68
2021/06/20 05:58:32;;;;;;;13.60;5.95;;;;;;;;;;5093515;28;20024;-68
2021/06/20 06:00:58;;;;;;;10.68;6.53;;;;;;;;;;5093513;28;20035;-68
2021/06/20 06:03:23;;;;;;;13.70;6.05;;;;;;;;;;5093146;28;20401;-68
2021/06/20 06:05:48;;;;;;;11.60;6.93;;;;;;;;;;5093422;28;20140;-68
2021/06/20 06:08:14;;;;;;;16.77;7.53;;;;;;;;;;5093327;28;20465;-68
2021/06/20 06:10:39;;;;;;;12.05;6.00;;;;;;;;;;5093068;28;20035;-68
2021/06/20 06:13:04;;;;;;;15.25;6.50;;;;;;;;;;5092953;28;20052;-68
2021/06/20 06:15:30;;;;;;;12.18;6.47;;;;;;;;;;5093360;28;20051;-68
2021/06/20 06:17:56;;;;;;;12.40;7.30;;;;;;;;;;5093474;28;20028;-67
2021/06/20 06:20:21;;;;;;;19.95;7.15;;;;;;;;;;5093222;28;20020;-67
2021/06/20 06:22:47;;;;;;;15.25;7.53;;;;;;;;;;5093175;28;20043;-68
2021/06/20 06:25:12;;;;;;;11.32;6.38;;;;;;;;;;5093166;28;20169;-68
2021/06/20 06:27:38;;;;;;;11.95;6.10;;;;;;;;;;5093057;28;20111;-68
2021/06/20 06:30:04;;;;;;;13.65;6.93;;;;;;;;;;5093202;28;20031;-69
2021/06/20 06:32:29;;;;;;;15.73;6.85;;;;;;;;;;5093067;28;20205;-68
2021/06/20 06:34:54;;;;;;;12.77;7.10;;;;;;;;;;5093024;28;20116;-68
2021/06/20 06:37:20;;;;;;;11.57;6.93;;;;;;;;;;5094386;28;20062;-68
2021/06/20 06:39:45;;;;;;;11.82;6.53;;;;;;;;;;5097204;28;20060;-68
2021/06/20 06:42:10;;;;;;;9.50;5.68;;;;;;;;;;5096897;28;20030;-68
2021/06/20 06:44:36;;;;;;;10.48;6.43;;;;;;;;;;5096987;28;20070;-68
2021/06/20 06:47:02;;;;;;;10.35;5.75;;;;;;;;;;5097057;28;20460;-68
2021/06/20 06:49:27;;;;;;;11.70;6.07;;;;;;;;;;5097090;28;20035;-68
2021/06/20 06:51:52;;;;;;;9.05;5.85;;;;;;;;;;5097131;28;20035;-67
2021/06/20 06:54:18;;;;;;;8.60;5.38;;;;;;;;;;5097031;28;20039;-68
2021/06/20 06:56:44;;;;;;;9.93;6.70;;;;;;;;;;5096692;28;20020;-67
2021/06/20 06:59:09;;;;;;;11.00;5.93;;;;;;;;;;5096962;28;20062;-68
2021/06/20 07:01:35;;;;;;;10.38;5.45;;;;;;;;;;5096299;28;20035;-68
2021/06/20 07:04:00;;;;;;;7.40;5.57;;;;;;;;;;5096635;28;20369;-68
2021/06/20 07:06:25;;;;;;;8.65;6.03;;;;;;;;;;5096531;28;20036;-68
2021/06/20 07:08:51;;;;;;;8.32;5.28;;;;;;;;;;5096765;28;20024;-68
2021/06/20 07:11:16;;;;;;;9.02;5.32;;;;;;;;;;5096545;28;20020;-68
2021/06/20 07:13:41;;;;;;;7.57;4.93;;;;;;;;;;5096631;28;20365;-68
2021/06/20 07:16:07;;;;;;;7.75;5.07;;;;;;;;;;5096595;28;20055;-68
2021/06/20 07:18:32;;;;;;;7.28;5.18;;;;;;;;;;5096100;28;20020;-69
2021/06/20 07:20:57;;;;;;;8.02;4.40;;;;;;;;;;5096374;28;20469;-67
2021/06/20 07:23:23;;;;;;;6.18;5.03;;;;;;;;;;5095885;28;20431;-68
2021/06/20 07:25:48;;;;;;;6.88;5.10;;;;;;;;;;5096054;28;20024;-68
2021/06/20 07:28:13;;;;;;;6.45;4.80;;;;;;;;;;5095751;28;20570;-68
2021/06/20 07:30:38;;;;;;;10.02;5.13;;;;;;;;;;5095747;28;20376;-68
2021/06/20 07:33:04;;;;;;;6.78;5.53;;;;;;;;;;5095966;28;20103;-68
2021/06/20 07:35:29;;;;;;;8.80;4.93;;;;;;;;;;5095667;28;20051;-68
2021/06/20 07:37:55;;;;;;;8.52;5.40;;;;;;;;;;5095201;28;20070;-66
2021/06/20 07:40:20;;;;;;;8.50;4.65;;;;;;;;;;5095697;28;20016;-68
2021/06/20 07:42:46;;;;;;;8.10;5.47;;;;;;;;;;5095497;28;20036;-68
2021/06/20 07:45:12;;;;;;;6.43;4.68;;;;;;;;;;5095930;28;20039;-68
2021/06/20 07:47:37;;;;;;;8.45;5.32;;;;;;;;;;5095470;28;20376;-67
2021/06/20 07:50:07;;;;;;;7.47;5.25;;;;;;;;;;5088259;28;20032;-68
2021/06/20 07:52:32;;;;;;;9.23;5.45;;;;;;;;;;5095479;28;20032;-67
2021/06/20 07:54:58;;;;;;;7.22;4.93;;;;;;;;;;5095800;28;20357;-68
2021/06/20 07:57:23;;;;;;;10.55;5.00;;;;;;;;;;5095994;28;20032;-68
2021/06/20 07:59:49;;;;;;;8.45;5.25;;;;;;;;;;5095698;28;20028;-67
2021/06/20 08:02:14;;;;;;;7.28;5.47;;;;;;;;;;5095109;28;20115;-67
2021/06/20 08:04:40;;;;;;;6.75;4.82;;;;;;;;;;5094838;28;20131;-67
2021/06/20 08:07:06;;;;;;;7.57;4.82;;;;;;;;;;5094215;28;20020;-68
2021/06/20 08:09:31;;;;;;;6.75;4.53;;;;;;;;;;5093079;28;20024;-67
2021/06/20 08:11:56;;;;;;;6.13;4.25;;;;;;;;;;5093560;28;20032;-67
2021/06/20 08:14:22;;;;;;;8.20;4.95;;;;;;;;;;5095100;28;20028;-67
2021/06/20 08:16:47;;;;;;;11.32;4.95;;;;;;;;;;5094126;28;20016;-66
2021/06/20 08:19:13;;;;;;;8.70;5.10;;;;;;;;;;5094698;28;20039;-68
2021/06/20 08:21:39;;;;;;;5.85;4.22;;;;;;;;;;5094833;28;20032;-68
2021/06/20 08:24:05;;;;;;;8.18;4.68;;;;;;;;;;5095035;28;20020;-68
2021/06/20 08:26:31;;;;;;;5.35;3.85;;;;;;;;;;5095014;28;20044;-68
2021/06/20 08:28:56;;;;;;;5.68;3.80;;;;;;;;;;5094801;28;20487;-68
2021/06/20 08:31:21;;;;;;;6.22;3.53;;;;;;;;;;5094679;28;20062;-67
2021/06/20 08:33:47;;;;;;;9.52;3.80;;;;;;;;;;5094712;28;20075;-68
2021/06/20 08:36:12;;;;;;;8.77;3.50;;;;;;;;;;5094935;28;20460;-67
2021/06/20 08:38:38;;;;;;;5.18;3.55;;;;;;;;;;5083333;28;20032;-67
2021/06/20 08:41:04;;;;;;;4.82;3.17;;;;;;;;;;5093421;28;20447;-68
2021/06/20 08:43:30;;;;;;;7.78;4.00;;;;;;;;;;5087176;28;20108;-66
2021/06/20 08:45:56;;;;;;;6.85;4.50;;;;;;;;;;5092811;28;20111;-67
2021/06/20 08:48:21;;;;;;;6.68;3.55;;;;;;;;;;5094395;28;20032;-68
2021/06/20 08:50:50;;;;;;;6.68;4.15;;;;;;;;;;5094127;28;20028;-67
2021/06/20 08:53:20;;;;;;;7.28;4.28;;;;;;;;;;5091593;28;20097;-67
2021/06/20 08:55:45;;;;;;;8.50;4.45;;;;;;;;;;5091320;28;20472;-68
2021/06/20 08:58:19;;;;;;;6.18;4.70;;;;;;;;;;5092913;28;20085;-67
2021/06/20 09:00:44;;;;;;;5.88;4.90;;;;;;;;;;5091966;28;20020;-68
2021/06/20 09:03:10;;;;;;;6.22;4.82;;;;;;;;;;5091716;28;20040;-67
2021/06/20 09:05:35;;;;;;;6.70;4.88;;;;;;;;;;5092862;28;20480;-67
2021/06/20 09:08:00;;;;;;;8.23;5.68;;;;;;;;;;5092644;28;20567;-68
2021/06/20 09:10:28;;;;;;;8.55;5.53;;;;;;;;;;5093019;28;20080;-68
2021/06/20 09:13:00;;;;;;;6.38;4.80;;;;;;;;;;5093928;28;20019;-68
2021/06/20 09:15:26;;;;;;;14.07;6.55;;;;;;;;;;5088970;28;20380;-68
2021/06/20 09:17:55;;;;;;;8.05;5.95;;;;;;;;;;5092424;28;20036;-68
2021/06/20 09:20:33;;;;;;;10.07;6.40;;;;;;;;;;5091706;28;20024;-68
2021/06/20 09:22:59;;;;;;;9.63;5.70;;;;;;;;;;5092602;28;20035;-68
2021/06/20 09:25:26;;;;;;;8.57;6.13;;;;;;;;;;5092998;28;20032;-68
2021/06/20 09:27:57;;;;;;;10.70;7.35;;;;;;;;;;5091826;28;20043;-68
2021/06/20 09:30:23;;;;;;;10.93;7.47;;;;;;;;;;5091543;28;20031;-68
2021/06/20 09:32:52;;;;;;;8.38;6.65;;;;;;;;;;5092215;28;20099;-68
2021/06/20 09:35:18;;;;;;;14.23;7.57;;;;;;;;;;5091767;28;20534;-68
2021/06/20 09:37:56;;;;;;;10.00;6.53;;;;;;;;;;5091324;28;20032;-68
2021/06/20 09:40:23;;;;;;;11.73;7.40;;;;;;;;;;5092545;28;20077;-67
2021/06/20 09:42:49;;;;;;;13.48;7.82;;;;;;;;;;5091551;28;20069;-67
2021/06/20 09:45:24;;;;;;;11.32;7.15;;;;;;;;;;5092668;28;20044;-67
2021/06/20 09:47:50;;;;;;;10.18;7.03;;;;;;;;;;5093502;28;20031;-68
2021/06/20 09:50:15;;;;;;;10.05;6.05;;;;;;;;;;5093680;28;20487;-68
2021/06/20 09:52:40;;;;;;;12.27;7.97;;;;;;;;;;5093422;28;20016;-68
2021/06/20 09:55:10;;;;;;;8.55;6.38;;;;;;;;;;5093336;28;20384;-67
2021/06/20 09:57:40;;;;;;;10.18;7.18;;;;;;;;;;5092938;28;20055;-68
2021/06/20 10:00:05;;;;;;;13.63;8.40;;;;;;;;;;5093295;28;20063;-68
2021/06/20 10:02:34;;;;;;;9.35;7.20;;;;;;;;;;5092374;28;20055;-67
2021/06/20 10:05:00;;;;;;;10.27;6.47;;;;;;;;;;5092290;28;20060;-67
2021/06/20 10:07:28;;;;;;;9.82;6.43;;;;;;;;;;5092954;28;20099;-68
2021/06/20 10:09:54;;;;;;;11.85;6.78;;;;;;;;;;5090189;28;20020;-67
2021/06/20 10:12:20;;;;;;;9.15;5.15;;;;;;;;;;5092373;28;20104;-68
2021/06/20 10:14:45;;;;;;;10.07;6.30;;;;;;;;;;5087301;28;20016;-68
2021/06/20 10:17:12;;;;;;;7.32;5.95;;;;;;;;;;5092630;28;20032;-68
2021/06/20 10:19:41;;;;;;;9.05;5.70;;;;;;;;;;5092994;28;20036;-67
2021/06/20 10:22:10;;;;;;;6.95;5.15;;;;;;;;;;5093025;28;20077;-68
2021/06/20 10:24:46;;;;;;;9.63;5.57;;;;;;;;;;5092903;28;20377;-68
2021/06/20 10:27:14;;;;;;;7.00;5.00;;;;;;;;;;5072943;28;20125;-67
2021/06/20 10:29:40;;;;;;;7.70;4.90;;;;;;;;;;5073198;28;20035;-68
2021/06/20 10:32:16;;;;;;;5.97;4.97;;;;;;;;;;5092605;28;20032;-67
2021/06/20 10:34:58;;;;;;;5.70;4.20;;;;;;;;;;5092979;28;20388;-68
2021/06/20 10:37:25;;;;;;;6.35;4.57;;;;;;;;;;5092757;28;20032;-67
2021/06/20 10:39:51;;;;;;;8.10;4.70;;;;;;;;;;5092696;28;20507;-68
2021/06/20 10:42:17;;;;;;;9.45;4.90;;;;;;;;;;5092162;28;20043;-67
2021/06/20 10:44:47;;;;;;;6.72;5.20;;;;;;;;;;5092646;28;20036;-68
2021/06/20 10:47:25;;;;;;;7.65;4.68;;;;;;;;;;5090189;28;20545;-68
2021/06/20 10:49:55;;;;;;;8.05;4.68;;;;;;;;;;5092614;28;20032;-68
2021/06/20 10:52:20;;;;;;;8.35;5.75;;;;;;;;;;5092546;28;20046;-68
2021/06/20 10:54:52;;;;;;;5.65;4.00;;;;;;;;;;5084579;28;20147;-68
2021/06/20 10:57:24;;;;;;;5.75;4.60;;;;;;;;;;5077079;28;20111;-68
2021/06/20 10:59:53;;;;;;;5.88;4.68;;;;;;;;;;5086882;28;20027;-67
2021/06/20 11:02:23;;;;;;;6.68;4.80;;;;;;;;;;5091824;28;20520;-68
2021/06/20 11:04:48;;;;;;;6.97;4.90;;;;;;;;;;5090450;28;20086;-68
2021/06/20 11:07:21;;;;;;;7.43;5.43;;;;;;;;;;5090095;28;20373;-68
2021/06/20 11:09:46;;;;;;;8.40;5.60;;;;;;;;;;5091422;28;20028;-68
2021/06/20 11:12:13;;;;;;;11.38;5.93;;;;;;;;;;5091818;28;20077;-68
2021/06/20 11:14:45;;;;;;;10.27;5.70;;;;;;;;;;5092091;28;20460;-68
2021/06/20 11:17:10;;;;;;;7.70;6.00;;;;;;;;;;5092364;28;20051;-68
2021/06/20 11:19:36;;;;;;;9.25;5.88;;;;;;;;;;5077352;28;20024;-67
2021/06/20 11:22:08;;;;;;;10.27;6.88;;;;;;;;;;5091063;28;20028;-67
2021/06/20 11:24:34;;;;;;;9.60;5.82;;;;;;;;;;5087290;28;20063;-67
2021/06/20 11:27:00;;;;;;;8.95;6.07;;;;;;;;;;5093774;28;20032;-67
2021/06/20 11:29:36;;;;;;;9.85;6.25;;;;;;;;;;5095544;28;20028;-68
2021/06/20 11:32:01;;;;;;;9.43;6.25;;;;;;;;;;5095515;28;20036;-67
2021/06/20 11:34:27;;;;;;;7.28;5.25;;;;;;;;;;5089585;28;20104;-67
2021/06/20 11:36:52;;;;;;;8.82;6.45;;;;;;;;;;5088279;28;20024;-67
2021/06/20 11:39:17;;;;;;;10.55;6.47;;;;;;;;;;5075087;28;20103;-68
2021/06/20 11:41:44;;;;;;;9.93;7.18;;;;;;;;;;5074738;28;20032;-67
2021/06/20 11:44:10;;;;;;;11.10;7.43;;;;;;;;;;5091904;28;20581;-67
2021/06/20 11:46:36;;;;;;;9.98;7.00;;;;;;;;;;5089751;28;20068;-67
2021/06/20 11:49:03;;;;;;;12.88;6.95;;;;;;;;;;5092793;28;20047;-67
2021/06/20 11:51:30;;;;;;;11.07;7.25;;;;;;;;;;5093598;28;20040;-67
2021/06/20 11:54:14;;;;;;;11.77;7.85;;;;;;;;;;5093446;28;20020;-67
2021/06/20 11:56:40;;;;;;;8.45;6.90;;;;;;;;;;5094221;28;20028;-67
2021/06/20 11:59:06;;;;;;;9.70;7.43;;;;;;;;;;5094494;28;20094;-67
2021/06/20 12:01:41;;;;;;;10.18;6.75;;;;;;;;;;5094009;28;20377;-66
2021/06/20 12:04:07;;;;;;;9.63;6.57;;;;;;;;;;5094662;28;20052;-68
2021/06/20 12:06:33;;;;;;;9.45;6.82;;;;;;;;;;5094198;28;20519;-67
2021/06/20 12:08:58;;;;;;;10.30;6.90;;;;;;;;;;5094964;28;20119;-67
2021/06/20 12:11:30;;;;;;;9.00;7.35;;;;;;;;;;5094875;28;20028;-68
2021/06/20 12:13:55;;;;;;;10.13;6.22;;;;;;;;;;5094056;28;20518;-67
2021/06/20 12:16:21;;;;;;;8.55;6.70;;;;;;;;;;5095077;28;20024;-67
2021/06/20 12:18:46;;;;;;;18.95;7.03;;;;;;;;;;5094537;28;20028;-67
2021/06/20 12:21:20;;;;;;;8.88;5.75;;;;;;;;;;5094338;28;20040;-67
2021/06/20 12:23:51;;;;;;;9.20;6.43;;;;;;;;;;5093450;28;20024;-66
2021/06/20 12:26:23;;;;;;;12.40;6.78;;;;;;;;;;5094608;28;20124;-68
2021/06/20 12:28:54;;;;;;;10.25;5.85;;;;;;;;;;5094290;28;20028;-67
2021/06/20 12:31:20;;;;;;;10.70;7.00;;;;;;;;;;5094399;28;20122;-68
2021/06/20 12:33:45;;;;;;;9.75;6.55;;;;;;;;;;5093868;28;20099;-68
2021/06/20 12:36:11;;;;;;;8.23;5.10;;;;;;;;;;5093998;28;20032;-68
2021/06/20 12:38:38;;;;;;;9.90;5.78;;;;;;;;;;5093306;28;20036;-68
2021/06/20 12:41:03;;;;;;;10.48;5.95;;;;;;;;;;5093006;28;20020;-67
2021/06/20 12:43:29;;;;;;;8.15;5.60;;;;;;;;;;5093201;28;20536;-68
2021/06/20 12:45:59;;;;;;;6.07;4.53;;;;;;;;;;5092109;28;20040;-68
2021/06/20 12:48:24;;;;;;;6.78;4.53;;;;;;;;;;5091188;28;20024;-67
2021/06/20 12:50:51;;;;;;;7.38;5.15;;;;;;;;;;5093029;28;20030;-67
2021/06/20 12:53:26;;;;;;;6.60;5.25;;;;;;;;;;5093304;28;20392;-67
2021/06/20 12:55:51;;;;;;;8.00;5.60;;;;;;;;;;5093831;28;20039;-68
2021/06/20 12:58:17;;;;;;;8.07;5.18;;;;;;;;;;5093100;28;20036;-68
2021/06/20 13:00:42;;;;;;;6.93;5.72;;;;;;;;;;5093597;28;20058;-68
2021/06/20 13:03:08;;;;;;;10.98;5.53;;;;;;;;;;5091307;28;20051;-67
2021/06/20 13:05:34;;;;;;;7.40;4.93;;;;;;;;;;5093277;28;20044;-68
2021/06/20 13:07:59;;;;;;;7.15;4.78;;;;;;;;;;5093032;28;20059;-67
2021/06/20 13:10:26;;;;;;;6.15;4.63;;;;;;;;;;5092892;28;20121;-67
2021/06/20 13:12:51;;;;;;;6.93;4.75;;;;;;;;;;5093215;28;20028;-68
2021/06/20 13:15:17;;;;;;;7.18;5.18;;;;;;;;;;5093201;28;20027;-68
2021/06/20 13:17:43;;;;;;;8.63;5.38;;;;;;;;;;5092720;28;20055;-68
2021/06/20 13:20:09;;;;;;;6.53;4.93;;;;;;;;;;5093867;28;20107;-68
2021/06/20 13:22:34;;;;;;;8.80;5.40;;;;;;;;;;5093708;28;20020;-67
2021/06/20 13:24:59;;;;;;;6.57;5.03;;;;;;;;;;5094003;28;20427;-68
2021/06/20 13:27:25;;;;;;;8.38;5.03;;;;;;;;;;5093705;28;20046;-68
2021/06/20 13:29:50;;;;;;;7.03;5.10;;;;;;;;;;5093811;28;20067;-67
2021/06/20 13:32:16;;;;;;;8.95;5.22;;;;;;;;;;5093878;28;20034;-68
2021/06/20 13:34:41;;;;;;;7.15;4.90;;;;;;;;;;5093796;28;20042;-67
2021/06/20 13:37:08;;;;;;;9.60;5.30;;;;;;;;;;5093516;28;20099;-67
2021/06/20 13:39:34;;;;;;;8.93;5.18;;;;;;;;;;5093905;28;20032;-67
2021/06/20 13:41:59;;;;;;;7.10;4.93;;;;;;;;;;5092472;28;20389;-68
2021/06/20 13:44:25;;;;;;;7.25;4.07;;;;;;;;;;5093669;28;20027;-68
2021/06/20 13:46:50;;;;;;;6.47;4.10;;;;;;;;;;5092859;28;20039;-68
2021/06/20 13:49:16;;;;;;;7.72;4.28;;;;;;;;;;5093704;28;20036;-67
2021/06/20 13:51:41;;;;;;;6.13;4.15;;;;;;;;;;5093635;28;20031;-68
2021/06/20 13:54:07;;;;;;;5.43;3.92;;;;;;;;;;5093123;28;20028;-67
2021/06/20 13:56:32;;;;;;;6.43;3.92;;;;;;;;;;5093630;28;20031;-68
2021/06/20 13:58:57;;;;;;;4.38;3.45;;;;;;;;;;5093433;28;20020;-68
2021/06/20 14:01:23;;;;;;;11.25;4.50;;;;;;;;;;5093528;28;20460;-67
2021/06/20 14:03:48;;;;;;;5.57;3.53;;;;;;;;;;5085553;28;20063;-68
2021/06/20 14:06:13;;;;;;;6.80;3.30;;;;;;;;;;5093296;28;20055;-68
2021/06/20 14:08:38;;;;;;;4.85;3.60;;;;;;;;;;5093245;28;20037;-68
2021/06/20 14:11:04;;;;;;;8.23;3.42;;;;;;;;;;5092509;28;20443;-67
2021/06/20 14:13:29;;;;;;;4.47;3.20;;;;;;;;;;5092169;28;20027;-67
2021/06/20 14:15:54;;;;;;;7.32;3.95;;;;;;;;;;5092400;28;20435;-67
2021/06/20 14:18:19;;;;;;;4.50;2.92;;;;;;;;;;5092819;28;20043;-68
2021/06/20 14:20:46;;;;;;;5.57;2.78;;;;;;;;;;5092742;28;20020;-68
2021/06/20 14:23:11;;;;;;;4.50;2.80;;;;;;;;;;5092029;28;20032;-68
2021/06/20 14:25:37;;;;;;;5.68;2.80;;;;;;;;;;5086044;28;20230;-67
2021/06/20 14:28:02;;;;;;;5.10;3.15;;;;;;;;;;5083963;28;20063;-68
2021/06/20 14:30:27;;;;;;;5.95;3.53;;;;;;;;;;5082129;28;20032;-66